Time;durP1;ratioP1;P1;durP2;ratioP2;P2;SDS_P1;SDS_P2;PMS_P1;PMS_P2;Temp;Humidity;BMP_temperature;BMP_pressure;BME280_temperature;BME280_humidity;BME280_pressure;Samples;Min_cycle;Max_cycle;Signal;HPM_P1;HPM_P2
2023/12/04 00:04:04;;;;;;;47.07;28.60;;;;;;;-2.11;100.00;100928.84;10153679;29;20465;-84
2023/12/04 00:09:05;;;;;;;52.13;25.53;;;;;;;-2.09;100.00;100928.22;10128801;29;20043;-83
2023/12/04 00:14:05;;;;;;;47.63;25.50;;;;;;;-2.15;100.00;100919.94;10147986;29;20127;-83
2023/12/04 00:19:06;;;;;;;37.37;24.83;;;;;;;-2.14;100.00;100919.19;10150019;29;20048;-84
2023/12/04 00:24:07;;;;;;;45.90;25.87;;;;;;;-2.10;100.00;100915.28;10144277;29;20040;-84
2023/12/04 00:29:07;;;;;;;43.90;24.80;;;;;;;-2.07;100.00;100910.44;10147283;29;20472;-83
2023/12/04 00:34:08;;;;;;;50.03;28.03;;;;;;;-2.02;100.00;100903.19;10154193;29;20135;-83
2023/12/04 00:39:08;;;;;;;43.13;26.20;;;;;;;-2.09;100.00;100894.00;10126049;29;20047;-83
2023/12/04 00:44:09;;;;;;;50.00;27.67;;;;;;;-2.04;100.00;100903.06;10141161;29;20044;-84
2023/12/04 00:49:09;;;;;;;46.67;26.17;;;;;;;-1.98;100.00;100903.66;10132631;29;20503;-84
2023/12/04 00:54:11;;;;;;;44.50;25.50;;;;;;;-1.94;100.00;100889.44;10149156;29;20064;-83
2023/12/04 00:59:11;;;;;;;38.92;19.55;;;;;;;-1.97;100.00;100884.03;10150463;29;20099;-83
2023/12/04 01:04:12;;;;;;;37.87;24.30;;;;;;;-1.93;100.00;100875.88;10156274;29;20457;-82
2023/12/04 01:09:12;;;;;;;52.80;27.40;;;;;;;-1.92;100.00;100868.34;10153795;29;20036;-84
2023/12/04 01:14:13;;;;;;;36.73;23.07;;;;;;;-1.91;100.00;100869.22;10148581;29;20080;-84
2023/12/04 01:19:13;;;;;;;38.17;23.03;;;;;;;-1.94;100.00;100869.84;10149958;29;20045;-84
2023/12/04 01:24:15;;;;;;;40.83;23.23;;;;;;;-1.95;100.00;100862.91;10151963;29;20397;-85
2023/12/04 01:29:15;;;;;;;38.80;23.58;;;;;;;-1.95;100.00;100862.00;10130209;29;20480;-85
2023/12/04 01:34:15;;;;;;;38.97;23.60;;;;;;;-1.91;100.00;100848.69;10147537;29;20051;-84
2023/12/04 01:39:16;;;;;;;36.87;22.57;;;;;;;-1.92;100.00;100845.25;10147382;29;20102;-84
2023/12/04 01:44:17;;;;;;;39.00;20.33;;;;;;;-1.97;100.00;100843.91;10131217;29;20054;-83
2023/12/04 01:49:18;;;;;;;31.52;16.70;;;;;;;-1.97;100.00;100836.19;10148158;29;20054;-86
2023/12/04 01:54:18;;;;;;;32.90;19.67;;;;;;;-2.05;100.00;100829.41;10142806;29;20500;-85
2023/12/04 01:59:19;;;;;;;38.83;18.87;;;;;;;-2.09;100.00;100830.75;10139839;29;20040;-85
2023/12/04 02:04:19;;;;;;;33.17;20.07;;;;;;;-2.10;100.00;100818.69;10160628;29;20052;-84
2023/12/04 02:09:20;;;;;;;48.60;21.90;;;;;;;-2.16;100.00;100807.84;10115005;29;20044;-85
2023/12/04 02:14:20;;;;;;;24.63;16.60;;;;;;;-2.10;100.00;100810.13;10146400;29;20066;-85
2023/12/04 02:19:21;;;;;;;32.40;14.90;;;;;;;-2.13;100.00;100797.00;10151990;29;20044;-84
2023/12/04 02:24:21;;;;;;;30.80;17.43;;;;;;;-2.12;100.00;100799.69;10123669;29;20036;-85
2023/12/04 02:29:26;;;;;;;37.23;18.17;;;;;;;-2.08;100.00;100788.97;10150879;29;20119;-84
2023/12/04 02:34:27;;;;;;;29.65;19.30;;;;;;;-2.12;100.00;100784.31;10142110;29;20040;-85
2023/12/04 02:39:27;;;;;;;30.07;18.67;;;;;;;-2.22;100.00;100777.41;10136920;29;20519;-84
2023/12/04 02:44:28;;;;;;;34.27;18.43;;;;;;;-2.23;100.00;100774.66;10149347;29;20435;-85
2023/12/04 02:49:29;;;;;;;22.90;13.13;;;;;;;-2.25;100.00;100768.47;10141600;29;20044;-84
2023/12/04 02:54:29;;;;;;;36.57;17.17;;;;;;;-2.25;100.00;100765.91;10148827;29;20054;-85
2023/12/04 02:59:29;;;;;;;31.20;16.77;;;;;;;-2.28;100.00;100756.28;10142796;29;20400;-84
2023/12/04 03:04:30;;;;;;;28.83;19.63;;;;;;;-2.32;100.00;100756.75;10128917;29;20053;-85
2023/12/04 03:09:31;;;;;;;33.47;19.30;;;;;;;-2.36;100.00;100752.06;10141201;29;20377;-84
2023/12/04 03:14:31;;;;;;;30.53;17.63;;;;;;;-2.39;100.00;100749.22;10154126;29;20046;-84
2023/12/04 03:19:32;;;;;;;34.27;19.87;;;;;;;-2.43;100.00;100741.97;10141841;29;20047;-83
2023/12/04 03:24:32;;;;;;;29.80;17.93;;;;;;;-2.42;100.00;100738.66;10145822;29;20949;-83
2023/12/04 03:29:33;;;;;;;29.50;17.43;;;;;;;-2.48;100.00;100731.25;10143586;29;20052;-85
2023/12/04 03:34:33;;;;;;;19.73;13.97;;;;;;;-2.51;100.00;100726.75;10125148;29;20511;-85
2023/12/04 03:39:34;;;;;;;25.27;12.53;;;;;;;-2.53;100.00;100723.16;10147092;29;20107;-84
2023/12/04 03:44:34;;;;;;;34.57;19.37;;;;;;;-2.44;100.00;100711.97;10125279;29;20139;-84
2023/12/04 03:49:35;;;;;;;24.63;17.90;;;;;;;-2.46;100.00;100703.22;10144991;29;20400;-84
2023/12/04 03:54:35;;;;;;;24.10;13.50;;;;;;;-2.46;100.00;100687.84;10139558;29;20044;-85
2023/12/04 03:59:36;;;;;;;37.10;19.63;;;;;;;-2.50;100.00;100681.50;10158532;29;20040;-85
2023/12/04 04:04:36;;;;;;;19.07;12.67;;;;;;;-2.41;100.00;100677.28;10128679;29;20107;-84
2023/12/04 04:09:37;;;;;;;25.57;15.20;;;;;;;-2.41;100.00;100668.69;10139152;29;20051;-85
2023/12/04 04:14:38;;;;;;;17.07;12.07;;;;;;;-2.41;100.00;100664.47;10141705;29;21274;-84
2023/12/04 04:19:38;;;;;;;23.73;14.20;;;;;;;-2.43;100.00;100653.16;10148498;29;20044;-84
2023/12/04 04:24:39;;;;;;;28.63;17.57;;;;;;;-2.47;100.00;100645.03;10148673;29;20040;-83
2023/12/04 04:29:42;;;;;;;22.17;12.63;;;;;;;-2.47;100.00;100635.66;10162654;29;20143;-83
2023/12/04 04:34:42;;;;;;;27.27;16.35;;;;;;;-2.45;100.00;100623.03;10142950;29;20052;-84
2023/12/04 04:39:43;;;;;;;27.43;14.67;;;;;;;-2.42;100.00;100631.00;10138454;29;20383;-84
2023/12/04 04:44:44;;;;;;;25.20;14.37;;;;;;;-2.40;100.00;100627.81;10140402;29;20047;-84
2023/12/04 04:49:44;;;;;;;22.53;13.77;;;;;;;-2.44;100.00;100612.91;10114001;29;20060;-83
2023/12/04 04:54:44;;;;;;;22.90;12.70;;;;;;;-2.39;100.00;100609.13;10107778;29;22349;-83
2023/12/04 04:59:45;;;;;;;21.47;12.83;;;;;;;-2.39;100.00;100606.56;10113324;29;20052;-83
2023/12/04 05:04:45;;;;;;;20.17;12.17;;;;;;;-2.33;100.00;100602.75;10111066;29;21869;-84
2023/12/04 05:09:46;;;;;;;18.10;11.33;;;;;;;-2.31;100.00;100588.44;10087072;29;20108;-84
2023/12/04 05:14:46;;;;;;;19.70;11.73;;;;;;;-2.32;100.00;100584.06;10107562;29;20062;-84
2023/12/04 05:19:47;;;;;;;16.03;11.00;;;;;;;-2.24;100.00;100583.13;10106109;29;20460;-83
2023/12/04 05:24:47;;;;;;;20.90;10.93;;;;;;;-2.26;100.00;100570.16;10113272;29;20092;-84
2023/12/04 05:29:48;;;;;;;19.10;12.80;;;;;;;-2.27;100.00;100568.38;10099525;29;20339;-83
2023/12/04 05:34:48;;;;;;;18.50;12.17;;;;;;;-2.20;100.00;100563.81;10100372;29;20060;-83
2023/12/04 05:39:49;;;;;;;16.73;11.47;;;;;;;-2.17;100.00;100558.97;10104568;29;20044;-83
2023/12/04 05:44:49;;;;;;;19.87;10.60;;;;;;;-2.19;100.00;100548.56;10112348;29;20052;-83
2023/12/04 05:49:50;;;;;;;15.57;11.13;;;;;;;-2.15;100.00;100540.38;10101929;29;20077;-84
2023/12/04 05:54:51;;;;;;;13.83;9.97;;;;;;;-2.12;100.00;100529.53;10093916;29;20052;-83
2023/12/04 05:59:52;;;;;;;17.63;11.10;;;;;;;-2.03;100.00;100530.38;10103737;29;20412;-85
2023/12/04 06:04:52;;;;;;;17.47;10.30;;;;;;;-2.00;100.00;100519.47;10098196;29;20048;-82
2023/12/04 06:09:53;;;;;;;16.23;9.30;;;;;;;-1.98;100.00;100513.75;10098920;29;20044;-86
2023/12/04 06:14:53;;;;;;;12.90;8.67;;;;;;;-2.02;100.00;100500.50;10111285;29;20147;-85
2023/12/04 06:19:54;;;;;;;17.63;11.00;;;;;;;-1.99;100.00;100503.34;10102216;29;22361;-84
2023/12/04 06:24:55;;;;;;;20.43;11.90;;;;;;;-2.01;100.00;100486.91;10096445;29;20056;-81
2023/12/04 06:29:56;;;;;;;18.30;10.60;;;;;;;-2.03;100.00;100484.22;10094264;29;20048;-86
2023/12/04 06:34:57;;;;;;;13.70;9.00;;;;;;;-2.01;100.00;100471.50;10092677;29;20114;-86
2023/12/04 06:40:02;;;;;;;16.87;8.40;;;;;;;-2.01;100.00;100467.31;10105711;29;20066;-86
2023/12/04 06:45:03;;;;;;;15.38;9.80;;;;;;;-2.02;100.00;100459.44;10102091;29;20079;-85
2023/12/04 06:50:04;;;;;;;11.83;5.40;;;;;;;-2.03;100.00;100456.00;10131947;29;20515;-86
2023/12/04 06:55:05;;;;;;;15.63;11.07;;;;;;;-2.05;100.00;100443.78;10150378;29;20047;-87
2023/12/04 07:00:07;;;;;;;14.63;8.37;;;;;;;-2.04;100.00;100446.50;10157845;29;20127;-87
2023/12/04 07:05:07;;;;;;;15.95;8.85;;;;;;;-2.05;100.00;100446.34;10157165;29;20059;-85
2023/12/04 07:10:08;;;;;;;14.27;9.63;;;;;;;-2.07;100.00;100452.25;10149723;29;20536;-86
2023/12/04 07:15:09;;;;;;;14.57;8.80;;;;;;;-2.08;100.00;100437.63;10153945;29;20570;-86
2023/12/04 07:20:11;;;;;;;13.63;8.27;;;;;;;-2.00;100.00;100447.66;10155861;29;20181;-88
2023/12/04 07:25:12;;;;;;;15.75;8.07;;;;;;;-1.92;100.00;100468.13;10146219;29;20044;-85
2023/12/04 07:30:13;;;;;;;13.83;8.83;;;;;;;-1.80;100.00;100464.88;10147444;29;20076;-85
2023/12/04 07:35:13;;;;;;;12.23;7.83;;;;;;;-1.68;100.00;100465.06;10161786;29;20047;-85
2023/12/04 07:40:14;;;;;;;13.63;7.73;;;;;;;-1.59;100.00;100459.88;10142099;29;20044;-86
2023/12/04 07:45:15;;;;;;;12.47;8.17;;;;;;;-1.55;100.00;100456.81;10137727;29;20040;-84
2023/12/04 07:50:16;;;;;;;13.52;7.60;;;;;;;-1.52;100.00;100451.97;10148357;29;20047;-84
2023/12/04 07:55:17;;;;;;;12.10;7.93;;;;;;;-1.49;100.00;100457.38;10147007;29;20082;-84
2023/12/04 08:00:18;;;;;;;14.53;8.20;;;;;;;-1.40;100.00;100470.09;10158233;29;20488;-84
2023/12/04 08:05:18;;;;;;;14.57;8.10;;;;;;;-1.34;100.00;100460.38;10154525;29;20052;-84
2023/12/04 08:10:19;;;;;;;12.40;6.90;;;;;;;-1.28;100.00;100453.22;10164756;29;20229;-85
2023/12/04 08:15:19;;;;;;;13.57;8.03;;;;;;;-1.22;100.00;100450.31;10160190;29;20044;-86
2023/12/04 08:20:22;;;;;;;12.13;8.30;;;;;;;-1.25;100.00;100443.22;10158947;29;20039;-87
2023/12/04 08:25:24;;;;;;;12.55;6.88;;;;;;;-1.20;100.00;100435.94;10162029;29;20159;-85
2023/12/04 08:30:26;;;;;;;14.20;8.47;;;;;;;-1.20;100.00;100441.06;10145229;29;20161;-87
2023/12/04 08:35:27;;;;;;;13.93;8.80;;;;;;;-1.14;100.00;100425.28;10146491;29;20157;-86
2023/12/04 08:40:27;;;;;;;11.83;7.73;;;;;;;-1.16;100.00;100417.44;10146907;29;20472;-87
2023/12/04 08:45:28;;;;;;;13.77;9.17;;;;;;;-1.12;100.00;100410.91;10164866;29;20127;-85
2023/12/04 08:50:28;;;;;;;13.07;8.30;;;;;;;-1.13;100.00;100412.59;10154673;29;20481;-86
2023/12/04 08:55:29;;;;;;;14.17;8.17;;;;;;;-1.13;100.00;100407.44;10156157;29;20048;-88
2023/12/04 09:00:29;;;;;;;19.73;9.95;;;;;;;-1.09;100.00;100400.88;10133612;29;20504;-85
2023/12/04 09:05:30;;;;;;;15.17;9.07;;;;;;;-1.05;100.00;100405.53;10163888;29;20099;-91
2023/12/04 09:10:30;;;;;;;14.70;9.43;;;;;;;-0.99;100.00;100402.59;10154642;29;20123;-90
2023/12/04 09:15:31;;;;;;;16.35;12.00;;;;;;;-1.01;100.00;100399.00;10147616;29;20048;-85
2023/12/04 09:20:32;;;;;;;17.73;11.13;;;;;;;-0.98;100.00;100389.00;10163470;29;20044;-92
2023/12/04 09:25:32;;;;;;;16.97;11.07;;;;;;;-0.98;100.00;100382.16;10163839;29;20119;-90
2023/12/04 09:30:34;;;;;;;20.80;11.17;;;;;;;-0.95;100.00;100371.28;10126713;29;20045;-87
2023/12/04 09:35:34;;;;;;;15.90;9.02;;;;;;;-0.88;100.00;100371.03;10141626;29;20448;-89
2023/12/04 09:40:37;;;;;;;17.05;11.48;;;;;;;-0.81;100.00;100372.44;10162060;29;20044;-87
2023/12/04 09:45:38;;;;;;;17.73;11.60;;;;;;;-0.75;100.00;100375.53;10169824;29;20460;-88
2023/12/04 09:50:39;;;;;;;20.35;12.13;;;;;;;-0.68;100.00;100366.66;10166203;29;20064;-89
2023/12/04 09:55:40;;;;;;;15.07;10.77;;;;;;;-0.63;100.00;100371.41;10149113;29;20051;-95
2023/12/04 10:00:42;;;;;;;20.67;11.32;;;;;;;-0.52;100.00;100363.72;10161473;29;20052;-85
2023/12/04 10:05:46;;;;;;;20.38;11.48;;;;;;;-0.40;100.00;100362.16;10160633;29;20048;-85
2023/12/04 10:10:46;;;;;;;16.30;10.52;;;;;;;-0.23;100.00;100353.28;10168897;29;20108;-91
2023/12/04 10:15:48;;;;;;;16.02;9.23;;;;;;;-0.13;100.00;100344.63;10149593;29;20043;-91
2023/12/04 10:20:55;;;;;;;18.95;10.23;;;;;;;0.03;100.00;100341.66;10146404;29;20066;-91
2023/12/04 10:25:55;;;;;;;17.80;10.10;;;;;;;0.18;100.00;100331.69;10144131;29;20040;-88
2023/12/04 10:30:58;;;;;;;18.33;9.45;;;;;;;0.35;100.00;100332.13;10161619;29;20040;-90
2023/12/04 10:35:59;;;;;;;14.38;9.02;;;;;;;0.50;100.00;100341.09;10160937;29;20048;-89
2023/12/04 10:41:11;;;;;;;13.88;8.32;;;;;;;0.61;100.00;100334.22;10159610;29;20131;-86
2023/12/04 10:46:12;;;;;;;15.40;9.52;;;;;;;0.68;100.00;100310.75;10146412;29;20073;-86
2023/12/04 10:51:13;;;;;;;14.55;9.25;;;;;;;0.55;100.00;100308.88;10142896;29;20519;-87
2023/12/04 10:56:36;;;;;;;14.82;9.32;;;;;;;0.40;100.00;100305.06;10142782;29;20131;-86
2023/12/04 11:01:36;;;;;;;12.70;8.18;;;;;;;0.40;100.00;100299.94;10157167;29;20099;-88
2023/12/04 11:06:39;;;;;;;14.43;9.15;;;;;;;0.49;100.00;100280.06;10144842;29;20503;-90
2023/12/04 11:11:40;;;;;;;;;;;;;;;0.65;100.00;100279.59;10142440;29;20136;-92
2023/12/04 11:17:05;;;;;;;15.70;11.55;;;;;;;0.61;100.00;100281.78;10139222;29;19926;-89
2023/12/04 11:22:07;;;;;;;15.15;9.77;;;;;;;0.49;100.00;100271.44;10154260;29;20054;-85
2023/12/04 11:27:08;;;;;;;13.67;8.27;;;;;;;0.40;100.00;100267.38;10136788;29;20051;-87
2023/12/04 11:32:15;;;;;;;14.43;9.93;;;;;;;0.34;100.00;100243.72;10141157;29;20036;-84
2023/12/04 11:37:16;;;;;;;17.38;9.45;;;;;;;0.34;100.00;100235.09;10140532;29;20580;-82
2023/12/04 11:42:23;;;;;;;18.60;10.32;;;;;;;0.40;100.00;100231.31;10150297;29;20127;-83
2023/12/04 11:47:24;;;;;;;16.00;10.80;;;;;;;0.25;100.00;100218.13;10151116;29;20497;-83
2023/12/04 11:52:37;;;;;;;18.23;10.27;;;;;;;0.13;100.00;100206.88;10138343;29;20119;-84
2023/12/04 11:57:40;;;;;;;17.08;9.88;;;;;;;0.02;100.00;100184.56;10150260;29;20135;-86
2023/12/04 12:02:41;;;;;;;14.73;9.73;;;;;;;-0.02;100.00;100168.88;10139583;29;20044;-94
2023/12/04 12:07:41;;;;;;;18.55;9.32;;;;;;;0.08;100.00;100154.16;10158726;29;20045;-91
2023/12/04 12:12:42;;;;;;;10.98;8.30;;;;;;;0.20;100.00;100139.66;10149434;29;20094;-90
2023/12/04 12:17:43;;;;;;;14.65;9.93;;;;;;;0.22;100.00;100121.78;10158344;29;20060;-91
2023/12/04 12:22:43;;;;;;;18.45;9.82;;;;;;;0.25;100.00;100129.75;10155918;29;20041;-88
2023/12/04 12:27:44;;;;;;;32.05;9.05;;;;;;;0.21;100.00;100118.31;10155882;29;20127;-88
2023/12/04 12:32:45;;;;;;;22.23;9.13;;;;;;;0.24;100.00;100126.25;10153138;29;20059;-85
2023/12/04 12:37:46;;;;;;;16.52;12.05;;;;;;;0.32;100.00;100110.50;10164485;29;20044;-91
2023/12/04 12:42:46;;;;;;;13.05;7.82;;;;;;;0.39;100.00;100098.22;10164351;29;20056;-83
2023/12/04 12:47:47;;;;;;;13.80;8.32;;;;;;;0.39;100.00;100084.44;10166392;29;20131;-84
2023/12/04 12:52:48;;;;;;;14.35;8.63;;;;;;;0.36;100.00;100072.25;10165803;29;20600;-89
2023/12/04 12:57:49;;;;;;;12.73;8.23;;;;;;;0.45;100.00;100061.72;10126194;29;20047;-85
2023/12/04 13:02:53;;;;;;;15.07;9.38;;;;;;;0.50;100.00;100051.78;10162726;29;20044;-84
2023/12/04 13:07:55;;;;;;;14.18;8.88;;;;;;;0.50;100.00;100034.66;10166280;29;20105;-86
2023/12/04 13:12:56;;;;;;;11.90;8.65;;;;;;;0.41;100.00;100019.44;10150720;29;20409;-94
2023/12/04 13:17:57;;;;;;;12.88;8.15;;;;;;;0.42;100.00;100004.88;10133891;29;20048;-93
2023/12/04 13:22:58;;;;;;;13.93;8.50;;;;;;;0.54;100.00;100004.91;10131160;29;20040;-85
2023/12/04 13:27:58;;;;;;;13.65;8.75;;;;;;;0.61;100.00;99994.25;10163148;29;20074;-89
2023/12/04 13:32:59;;;;;;;14.90;9.52;;;;;;;0.55;100.00;99979.25;10147598;29;20075;-95
2023/12/04 13:37:59;;;;;;;16.83;9.90;;;;;;;0.54;100.00;99979.13;10166538;29;20060;-87
2023/12/04 13:48:21;;;;;;;19.15;11.65;;;;;;;0.45;100.00;99965.59;10143405;29;20507;-85
2023/12/04 13:53:29;;;;;;;17.48;10.52;;;;;;;0.42;100.00;99959.44;10160485;29;20051;-84
2023/12/04 14:00:04;;;;;;;16.77;9.77;;;;;;;0.31;100.00;99928.53;10515409;27;20436;-83
2023/12/04 14:05:05;;;;;;;15.63;11.30;;;;;;;0.23;100.00;99927.97;10505652;28;20040;-82
2023/12/04 14:10:08;;;;;;;18.00;11.45;;;;;;;0.26;100.00;99917.91;10515623;28;20041;-83
2023/12/04 14:15:09;;;;;;;22.65;12.75;;;;;;;0.26;100.00;99921.34;10499353;28;20046;-84
2023/12/04 14:20:12;;;;;;;14.52;10.75;;;;;;;0.24;100.00;99912.63;10516614;28;20036;-83
2023/12/04 14:25:13;;;;;;;21.73;10.48;;;;;;;0.27;100.00;99910.28;10517155;28;20440;-81
2023/12/04 14:30:14;;;;;;;18.73;12.57;;;;;;;0.24;100.00;99902.34;10519425;28;20040;-83
2023/12/04 14:35:14;;;;;;;20.40;11.73;;;;;;;0.12;100.00;99896.28;10517217;28;20545;-84
2023/12/04 14:40:15;;;;;;;16.48;11.77;;;;;;;0.08;100.00;99891.69;10500890;28;20108;-84
2023/12/04 14:45:16;;;;;;;12.98;8.85;;;;;;;0.05;100.00;99894.03;10517783;28;20110;-82
2023/12/04 14:50:16;;;;;;;22.40;13.20;;;;;;;-0.10;100.00;99896.38;10483493;28;20118;-84
2023/12/04 15:06:24;;;;;;;21.48;13.68;;;;;;;-0.57;100.00;99900.63;10511093;28;20098;-83
2023/12/04 15:16:35;;;;;;;21.33;13.43;;;;;;;-0.77;100.00;99891.38;10471676;28;20485;-88
2023/12/04 15:21:36;;;;;;;25.27;12.68;;;;;;;-0.83;100.00;99878.06;10486633;28;20041;-84
2023/12/04 15:26:36;;;;;;;23.17;13.93;;;;;;;-0.82;100.00;99882.41;10487384;28;20135;-86
2023/12/04 15:31:38;;;;;;;23.70;15.70;;;;;;;-0.85;100.00;99866.75;10470724;28;20089;-87
2023/12/04 15:36:38;;;;;;;24.40;17.53;;;;;;;-0.80;100.00;99865.44;10468569;28;20094;-83
2023/12/04 15:41:39;;;;;;;24.60;16.80;;;;;;;-0.84;100.00;99863.41;10478922;28;20440;-83
2023/12/04 15:46:43;;;;;;;21.00;14.97;;;;;;;-0.83;100.00;99854.94;10485315;28;20040;-82
2023/12/04 15:51:43;;;;;;;25.90;14.88;;;;;;;-0.82;100.00;99854.16;10494438;28;20036;-82
2023/12/04 15:56:44;;;;;;;29.77;17.43;;;;;;;-0.84;100.00;99853.13;10499190;28;20545;-83
2023/12/04 16:01:44;;;;;;;28.03;19.87;;;;;;;-0.82;100.00;99849.00;10472330;28;20036;-82
2023/12/04 16:06:45;;;;;;;27.40;18.23;;;;;;;-0.81;100.00;99832.81;10501819;28;20479;-82
2023/12/04 16:11:46;;;;;;;24.92;18.10;;;;;;;-0.83;100.00;99834.38;10462268;28;20069;-82
2023/12/04 16:16:47;;;;;;;27.60;17.23;;;;;;;-0.80;100.00;99822.69;10489122;28;20043;-82
2023/12/04 16:21:47;;;;;;;24.80;16.50;;;;;;;-0.75;100.00;99816.22;10450771;28;20453;-83
2023/12/04 16:26:51;;;;;;;24.47;12.37;;;;;;;-0.82;100.00;99818.19;10421650;28;20037;-84
2023/12/04 16:31:51;;;;;;;24.92;16.70;;;;;;;-0.79;100.00;99816.75;10468471;28;20097;-83
2023/12/04 16:36:52;;;;;;;28.50;18.17;;;;;;;-0.78;100.00;99804.78;10455374;28;20041;-85
2023/12/04 16:41:55;;;;;;;32.77;18.70;;;;;;;-0.80;100.00;99796.97;10450841;28;20045;-83
2023/12/04 16:46:58;;;;;;;26.30;17.98;;;;;;;-0.78;100.00;99795.41;10437977;28;20151;-83
2023/12/04 16:51:58;;;;;;;31.90;19.88;;;;;;;-0.74;100.00;99791.41;10480722;28;20036;-83
2023/12/04 16:56:59;;;;;;;28.33;19.83;;;;;;;-0.79;100.00;99782.44;10498010;28;20422;-87
2023/12/04 17:02:00;;;;;;;38.03;20.00;;;;;;;-0.70;100.00;99771.97;10446641;28;20536;-89
2023/12/04 17:07:00;;;;;;;29.08;18.80;;;;;;;-0.73;100.00;99767.50;10463689;28;20086;-86
2023/12/04 17:12:02;;;;;;;30.87;20.50;;;;;;;-0.71;100.00;99757.34;10478393;28;20036;-85
2023/12/04 17:17:05;;;;;;;28.42;19.95;;;;;;;-0.66;100.00;99754.31;10477163;28;20036;-83
2023/12/04 17:22:07;;;;;;;29.08;19.15;;;;;;;-0.65;100.00;99747.50;10476181;28;20044;-81
2023/12/04 17:27:09;;;;;;;39.40;21.55;;;;;;;-0.68;100.00;99745.59;10455782;28;20925;-85
2023/12/04 17:32:10;;;;;;;32.57;22.60;;;;;;;-0.65;100.00;99739.81;10467471;28;20127;-85
2023/12/04 17:37:13;;;;;;;34.13;20.93;;;;;;;-0.66;100.00;99730.31;10452825;28;20040;-85
2023/12/04 17:42:14;;;;;;;33.63;21.67;;;;;;;-0.63;100.00;99722.81;10435337;28;20116;-86
2023/12/04 17:47:15;;;;;;;34.93;21.33;;;;;;;-0.61;100.00;99731.53;10462900;28;20041;-86
2023/12/04 17:52:20;;;;;;;29.80;19.43;;;;;;;-0.56;100.00;99729.28;10419850;28;20029;-85
2023/12/04 17:57:21;;;;;;;37.95;23.63;;;;;;;-0.53;100.00;99725.28;10459420;28;20040;-89
2023/12/04 18:02:22;;;;;;;37.40;20.07;;;;;;;-0.51;100.00;99718.59;10477351;28;20111;-87
2023/12/04 18:07:23;;;;;;;35.53;23.47;;;;;;;-0.51;100.00;99705.72;10466239;28;20040;-85
2023/12/04 18:12:23;;;;;;;27.73;20.57;;;;;;;-0.46;100.00;99703.47;10453357;28;20587;-88
2023/12/04 18:17:24;;;;;;;33.73;21.73;;;;;;;-0.45;100.00;99690.75;10476122;28;20132;-84
2023/12/04 18:22:24;;;;;;;35.17;21.83;;;;;;;-0.44;100.00;99683.91;10456348;28;20060;-84
2023/12/04 18:27:25;;;;;;;34.83;25.17;;;;;;;-0.41;100.00;99679.00;10448892;28;20589;-84
2023/12/04 18:32:26;;;;;;;35.87;22.70;;;;;;;-0.37;100.00;99670.72;10470416;28;20067;-83
2023/12/04 18:37:32;;;;;;;33.60;23.37;;;;;;;-0.35;100.00;99664.00;10476929;28;20478;-85
2023/12/04 18:42:33;;;;;;;36.55;23.75;;;;;;;-0.35;100.00;99656.31;10469215;28;20036;-83
2023/12/04 18:47:44;;;;;;;34.73;23.57;;;;;;;-0.36;100.00;99659.66;10482439;28;20044;-85
2023/12/04 18:52:47;;;;;;;35.40;24.30;;;;;;;-0.31;100.00;99655.72;10445368;28;20045;-83
2023/12/04 18:57:48;;;;;;;33.97;22.55;;;;;;;-0.28;100.00;99656.75;10438405;28;20443;-86
2023/12/04 19:02:48;;;;;;;33.90;22.53;;;;;;;-0.29;100.00;99645.56;10421671;28;20049;-86
2023/12/04 19:07:49;;;;;;;38.07;24.13;;;;;;;-0.28;100.00;99637.06;10443072;28;20120;-87
2023/12/04 19:12:49;;;;;;;36.67;23.92;;;;;;;-0.30;100.00;99636.94;10428341;28;20041;-88
2023/12/04 19:17:50;;;;;;;36.73;23.83;;;;;;;-0.25;100.00;99621.88;10419009;28;20098;-88
2023/12/04 19:22:53;;;;;;;33.10;24.50;;;;;;;-0.26;100.00;99627.78;10439986;28;20037;-84
2023/12/04 19:27:54;;;;;;;31.05;21.77;;;;;;;-0.24;100.00;99610.78;10411682;28;20366;-84
2023/12/04 19:32:54;;;;;;;38.93;26.53;;;;;;;-0.24;100.00;99604.75;10439558;28;20045;-86
2023/12/04 19:37:55;;;;;;;37.57;25.07;;;;;;;-0.23;100.00;99598.81;10440464;28;20045;-86
2023/12/04 19:42:55;;;;;;;39.00;26.27;;;;;;;-0.16;100.00;99601.03;10428214;28;20373;-82
2023/12/04 19:47:56;;;;;;;40.53;24.80;;;;;;;-0.19;100.00;99598.25;10460289;28;20133;-83
2023/12/04 19:52:56;;;;;;;37.47;22.27;;;;;;;-0.18;100.00;99598.38;10461653;28;20080;-84
2023/12/04 19:57:57;;;;;;;38.00;24.75;;;;;;;-0.13;100.00;99593.53;10490264;28;21517;-83
2023/12/04 20:02:57;;;;;;;36.10;25.63;;;;;;;-0.11;100.00;99591.94;10471373;28;20048;-82
2023/12/04 20:07:58;;;;;;;36.17;23.35;;;;;;;-0.11;100.00;99576.53;10474144;28;20097;-84
2023/12/04 20:12:58;;;;;;;39.80;25.80;;;;;;;-0.11;100.00;99576.53;10466685;28;20605;-85
2023/12/04 20:18:03;;;;;;;42.73;25.30;;;;;;;-0.10;100.00;99569.72;10479680;28;20088;-84
2023/12/04 20:23:03;;;;;;;38.97;23.42;;;;;;;-0.09;100.00;99568.94;10420472;28;20052;-85
2023/12/04 20:28:04;;;;;;;46.50;29.33;;;;;;;-0.06;100.00;99570.00;10454012;28;20123;-85
2023/12/04 20:33:05;;;;;;;38.67;26.77;;;;;;;-0.01;100.00;99558.38;10463270;28;20044;-84
2023/12/04 20:38:06;;;;;;;34.22;26.23;;;;;;;0.02;100.00;99557.69;10429994;28;20555;-85
2023/12/04 20:43:06;;;;;;;38.17;25.98;;;;;;;0.08;100.00;99557.22;10447503;28;20041;-86
2023/12/04 20:48:08;;;;;;;39.05;25.80;;;;;;;0.08;100.00;99557.22;10463222;28;20094;-85
2023/12/04 20:53:10;;;;;;;36.72;23.55;;;;;;;0.11;100.00;99553.19;10450855;28;20033;-87
2023/12/04 20:58:10;;;;;;;38.72;24.45;;;;;;;0.12;100.00;99548.91;10455743;28;20127;-86
2023/12/04 21:03:14;;;;;;;38.22;25.92;;;;;;;0.13;100.00;99543.88;10441390;28;20128;-86
2023/12/04 21:08:14;;;;;;;34.83;24.08;;;;;;;0.19;100.00;99540.81;10474509;28;20407;-87
2023/12/04 21:13:15;;;;;;;40.90;26.20;;;;;;;0.24;100.00;99534.28;10495910;28;20123;-88
2023/12/04 21:18:15;;;;;;;40.73;26.17;;;;;;;0.28;100.00;99541.44;10495622;28;20122;-87
2023/12/04 21:23:16;;;;;;;27.10;19.10;;;;;;;0.27;100.00;99528.47;10464035;28;20139;-87
2023/12/04 21:28:16;;;;;;;40.42;27.38;;;;;;;0.28;100.00;99532.84;10469997;28;20048;-86
2023/12/04 21:33:17;;;;;;;39.15;25.58;;;;;;;0.35;100.00;99537.59;10470744;28;20135;-87
2023/12/04 21:38:17;;;;;;;38.40;24.77;;;;;;;0.38;100.00;99529.19;10483350;28;20120;-87
2023/12/04 21:43:18;;;;;;;42.95;28.45;;;;;;;0.38;100.00;99524.03;10479728;28;20064;-85
2023/12/04 21:48:18;;;;;;;46.38;28.42;;;;;;;0.43;100.00;99520.09;10521349;28;20463;-83
2023/12/04 21:53:19;;;;;;;39.05;27.52;;;;;;;0.43;100.00;99517.50;10468472;28;20124;-84
2023/12/04 21:58:19;;;;;;;42.22;27.50;;;;;;;0.45;100.00;99515.06;10463839;28;20135;-85
2023/12/04 22:03:20;;;;;;;45.08;29.30;;;;;;;0.48;100.00;99510.09;10483936;28;20392;-86
2023/12/04 22:08:20;;;;;;;40.58;24.98;;;;;;;0.51;100.00;99497.44;10488263;28;20033;-86
2023/12/04 22:13:21;;;;;;;38.67;26.77;;;;;;;0.56;100.00;99493.47;10472279;28;20051;-86
2023/12/04 22:18:21;;;;;;;41.60;28.48;;;;;;;0.57;100.00;99479.81;10486264;28;20130;-85
2023/12/04 22:23:22;;;;;;;44.20;27.63;;;;;;;0.59;100.00;99480.81;10503775;28;20089;-85
2023/12/04 22:28:22;;;;;;;43.70;30.17;;;;;;;0.61;100.00;99473.16;10490268;28;20064;-84
2023/12/04 22:33:23;;;;;;;44.88;27.63;;;;;;;0.61;100.00;99474.06;10473187;28;20037;-84
2023/12/04 22:38:23;;;;;;;43.58;28.95;;;;;;;0.63;100.00;99482.78;10489263;28;20252;-85
2023/12/04 22:43:24;;;;;;;45.40;28.65;;;;;;;0.67;100.00;99473.56;10456537;28;20128;-84
2023/12/04 22:48:24;;;;;;;46.10;30.52;;;;;;;0.69;100.00;99467.72;10484451;28;20535;-83
2023/12/04 22:53:25;;;;;;;44.50;25.70;;;;;;;0.72;100.00;99464.44;10471425;28;20060;-85
2023/12/04 22:58:25;;;;;;;46.67;29.15;;;;;;;0.78;100.00;99457.13;10482056;28;20111;-85